createdAt,value
2022-08-04T00:04:35.848Z,79
2022-08-04T00:14:36.541Z,80
2022-08-04T00:24:36.916Z,81
2022-08-04T00:34:37.431Z,81
2022-08-04T00:54:38.380Z,81
2022-08-04T01:04:39.292Z,81
2022-08-04T01:14:40.031Z,81
2022-08-04T01:24:40.270Z,81
2022-08-04T01:34:40.757Z,81
2022-08-04T01:44:41.173Z,81
2022-08-04T01:54:41.552Z,81
2022-08-04T02:04:42.204Z,82
2022-08-04T02:14:42.535Z,82
2022-08-04T02:24:42.891Z,82
2022-08-04T02:54:44.033Z,83
2022-08-04T03:04:44.351Z,84
2022-08-04T03:14:44.525Z,84
2022-08-04T03:24:45.342Z,84
2022-08-04T03:34:45.521Z,84
2022-08-04T03:44:45.807Z,84
2022-08-04T03:54:46.792Z,85
2022-08-04T04:04:47.418Z,85
2022-08-04T04:14:47.812Z,85
2022-08-04T04:24:48.036Z,85
2022-08-04T04:34:48.303Z,85
2022-08-04T04:54:49.513Z,86
2022-08-04T05:14:51.733Z,85
2022-08-04T05:24:52.353Z,86
2022-08-04T05:34:53.164Z,85
2022-08-04T05:44:53.368Z,83
2022-08-04T05:54:54.557Z,81
2022-08-04T06:04:55.120Z,80
2022-08-04T06:14:59.452Z,79
2022-08-04T06:24:56.441Z,79
2022-08-04T06:34:57.291Z,78
2022-08-04T06:54:58.987Z,74
2022-08-04T07:05:02.391Z,72
2022-08-04T07:15:00.752Z,72
2022-08-04T07:55:03.705Z,68
2022-08-04T08:05:04.419Z,65
2022-08-04T08:15:05.172Z,63
2022-08-04T08:25:06.424Z,62
2022-08-04T08:35:07.067Z,58
2022-08-04T08:45:07.858Z,59
2022-08-04T09:05:09.119Z,58
2022-08-04T09:15:09.601Z,56
2022-08-04T09:25:09.826Z,55
2022-08-04T09:45:13.492Z,54
2022-08-04T09:55:12.008Z,53
2022-08-04T10:05:12.867Z,52
2022-08-04T10:15:13.336Z,53
2022-08-04T10:35:14.618Z,52
2022-08-04T10:45:15.341Z,50
2022-08-04T10:55:15.906Z,47
2022-08-04T11:05:16.973Z,45
2022-08-04T11:15:17.334Z,47
2022-08-04T11:25:17.679Z,47
2022-08-04T11:35:18.398Z,46
2022-08-04T11:45:19.420Z,45
2022-08-04T11:55:19.857Z,47
2022-08-04T12:05:23.341Z,48
2022-08-04T12:15:20.915Z,50
2022-08-04T12:25:21.600Z,52
2022-08-04T12:35:22.226Z,54
2022-08-04T12:45:22.425Z,55
2022-08-04T13:05:23.388Z,61
2022-08-04T13:15:23.754Z,61
2022-08-04T13:26:42.098Z,61
2022-08-04T13:35:27.992Z,61
2022-08-04T13:45:32.394Z,60
2022-08-04T14:05:28.618Z,59
2022-08-04T14:15:27.958Z,58
2022-08-04T14:25:30.302Z,58
2022-08-04T14:45:28.581Z,57
2022-08-04T14:55:29.282Z,53
2022-08-04T15:05:55.648Z,51
2022-08-04T15:15:36.828Z,53
2022-08-04T15:35:35.161Z,57
2022-08-04T15:55:34.514Z,62
2022-08-04T16:35:39.283Z,62
2022-08-04T16:45:36.054Z,62
2022-08-04T17:15:39.081Z,66
2022-08-04T19:15:48.648Z,74
2022-08-04T19:55:50.330Z,78
2022-08-04T20:05:54.683Z,79
2022-08-04T20:15:55.598Z,78
2022-08-04T20:25:52.187Z,78
2022-08-04T20:36:00.895Z,75
2022-08-04T20:45:56.221Z,75
2022-08-04T20:55:56.209Z,75
2022-08-04T21:05:55.556Z,75
2022-08-04T21:15:57.987Z,75
2022-08-04T21:25:56.933Z,75
2022-08-04T21:46:03.974Z,76
2022-08-04T21:56:05.250Z,76
2022-08-04T22:05:59.682Z,76
2022-08-04T22:16:04.146Z,76
2022-08-04T22:26:00.139Z,76
2022-08-04T22:36:00.279Z,77
2022-08-04T22:46:01.922Z,77
2022-08-04T22:56:07.778Z,79
2022-08-04T23:06:02.067Z,85
2022-08-04T23:16:02.291Z,90
2022-08-04T23:26:07.219Z,94
2022-08-04T23:36:02.694Z,95
2022-08-04T23:46:04.712Z,96
